createdAt,value
2019-01-27T00:01:37.678Z,70.01
2019-01-27T00:04:46.304Z,70.08
2019-01-27T00:07:15.490Z,70.05
2019-01-27T00:09:44.746Z,69.90
2019-01-27T00:12:13.925Z,70.18
2019-01-27T00:14:43.116Z,70.19
2019-01-27T00:17:12.370Z,70.47
2019-01-27T00:19:41.573Z,70.67
2019-01-27T00:22:10.809Z,70.79
2019-01-27T00:24:39.993Z,70.83
2019-01-27T00:27:09.232Z,70.86
2019-01-27T00:29:38.412Z,70.96
2019-01-27T00:32:07.599Z,71.04
2019-01-27T00:34:36.896Z,70.96
2019-01-27T00:37:06.083Z,70.84
2019-01-27T00:39:35.315Z,70.89
2019-01-27T00:42:04.809Z,70.87
2019-01-27T00:44:34.048Z,70.84
2019-01-27T00:47:03.247Z,70.71
2019-01-27T00:49:32.489Z,70.48
2019-01-27T00:52:02.005Z,70.59
2019-01-27T00:54:31.376Z,70.61
2019-01-27T00:57:00.690Z,70.89
2019-01-27T00:59:29.940Z,70.89
2019-01-27T01:01:59.129Z,71.06
2019-01-27T01:04:28.710Z,70.87
2019-01-27T01:06:57.895Z,70.94
2019-01-27T01:09:27.131Z,70.88
2019-01-27T01:11:56.607Z,70.82
2019-01-27T01:14:26.220Z,70.82
2019-01-27T01:16:55.402Z,70.75
2019-01-27T01:19:24.638Z,70.75
2019-01-27T01:21:53.817Z,70.65
2019-01-27T01:24:23.056Z,70.45
2019-01-27T01:26:52.618Z,70.48
2019-01-27T01:29:21.864Z,70.75
2019-01-27T01:31:51.043Z,70.53
2019-01-27T01:34:20.339Z,70.53
2019-01-27T01:36:49.808Z,70.46
2019-01-27T01:39:19.050Z,70.45
2019-01-27T01:41:48.231Z,70.42
2019-01-27T01:44:18.124Z,70.37
2019-01-27T01:46:47.293Z,70.20
2019-01-27T01:49:16.539Z,70.04
2019-01-27T01:51:45.719Z,69.90
2019-01-27T01:54:14.966Z,69.96
2019-01-27T01:56:44.153Z,70.18
2019-01-27T01:59:13.398Z,69.73
2019-01-27T02:01:42.608Z,69.85
2019-01-27T02:04:11.836Z,69.66
2019-01-27T02:06:41.071Z,69.84
2019-01-27T02:09:13.083Z,69.90
2019-01-27T02:11:42.256Z,69.86
2019-01-27T02:14:11.874Z,69.95
2019-01-27T02:16:41.055Z,69.96
2019-01-27T02:19:10.232Z,69.97
2019-01-27T02:21:39.472Z,69.94
2019-01-27T02:24:08.751Z,69.92
2019-01-27T02:26:37.992Z,69.98
2019-01-27T02:29:07.169Z,70.11
2019-01-27T02:31:36.506Z,70.02
2019-01-27T02:34:05.964Z,70.12
2019-01-27T02:36:35.198Z,70.14
2019-01-27T02:42:14.895Z,70.30
2019-01-27T02:44:44.082Z,69.96
2019-01-27T02:47:13.349Z,69.92
2019-01-27T02:49:42.540Z,70.01
2019-01-27T02:52:11.724Z,70.11
2019-01-27T02:54:40.961Z,70.19
2019-01-27T02:57:10.151Z,69.90
2019-01-27T02:59:39.380Z,69.93
2019-01-27T03:02:08.654Z,70.12
2019-01-27T03:04:37.886Z,70.33
2019-01-27T03:07:46.472Z,70.31
2019-01-27T03:10:16.216Z,70.21
2019-01-27T03:12:45.742Z,70.15
2019-01-27T03:15:54.368Z,69.97
2019-01-27T03:18:23.550Z,69.99
2019-01-27T03:20:52.792Z,70.05
2019-01-27T03:23:21.972Z,70.10
2019-01-27T03:25:51.200Z,70.07
2019-01-27T03:28:20.384Z,70.15
2019-01-27T03:30:49.638Z,70.05
2019-01-27T03:33:18.830Z,70.04
2019-01-27T03:35:55.430Z,70.01
2019-01-27T03:38:24.612Z,70.09
2019-01-27T03:40:53.791Z,70.10
2019-01-27T03:43:23.030Z,70.05
2019-01-27T03:45:52.211Z,69.76
2019-01-27T03:48:21.437Z,69.74
2019-01-27T03:50:50.629Z,69.74
2019-01-27T03:53:19.857Z,69.79
2019-01-27T03:55:49.446Z,69.67
2019-01-27T03:58:18.680Z,69.67
2019-01-27T04:00:47.862Z,69.72
2019-01-27T04:03:17.410Z,69.87
2019-01-27T04:05:46.921Z,69.68
2019-01-27T04:08:16.212Z,69.48
2019-01-27T04:10:45.733Z,68.86
2019-01-27T04:13:15.002Z,68.75
2019-01-27T04:15:44.216Z,68.77
2019-01-27T04:18:13.413Z,69.02
2019-01-27T04:20:42.644Z,69.21
2019-01-27T04:23:12.123Z,69.06
2019-01-27T04:25:43.337Z,69.01
2019-01-27T04:28:12.509Z,68.87
2019-01-27T04:30:41.755Z,69.03
2019-01-27T04:33:10.930Z,69.12
2019-01-27T04:35:40.573Z,69.41
2019-01-27T04:38:09.768Z,69.66
2019-01-27T04:40:38.999Z,69.94
2019-01-27T04:43:08.195Z,70.47
2019-01-27T04:48:14.215Z,71.93
2019-01-27T04:50:43.449Z,72.24
2019-01-27T04:53:12.633Z,72.56
2019-01-27T04:55:41.888Z,72.95
2019-01-27T04:58:11.086Z,73.11
2019-01-27T05:00:40.252Z,72.80
2019-01-27T05:03:28.481Z,72.58
2019-01-27T05:05:57.660Z,72.38
2019-01-27T05:08:26.900Z,72.42
2019-01-27T05:10:56.080Z,72.41
2019-01-27T05:13:25.329Z,72.32
2019-01-27T05:15:54.507Z,72.04
2019-01-27T05:18:24.094Z,71.72
2019-01-27T05:20:53.275Z,71.59
2019-01-27T05:23:22.512Z,71.34
2019-01-27T05:25:52.100Z,71.16
2019-01-27T05:28:21.348Z,71.10
2019-01-27T05:30:50.868Z,70.83
2019-01-27T05:33:20.474Z,70.77
2019-01-27T05:35:49.712Z,70.80
2019-01-27T05:38:18.976Z,70.95
2019-01-27T05:40:48.163Z,70.33
2019-01-27T05:43:17.362Z,70.42
2019-01-27T05:45:46.983Z,70.38
2019-01-27T05:48:35.163Z,70.39
2019-01-27T05:51:04.452Z,70.33
2019-01-27T05:53:33.783Z,70.00
2019-01-27T05:56:03.042Z,69.83
2019-01-27T05:58:32.235Z,69.66
2019-01-27T06:01:01.484Z,69.51
2019-01-27T06:03:31.018Z,69.29
2019-01-27T06:06:00.252Z,69.24
2019-01-27T06:08:29.441Z,69.27
2019-01-27T06:10:58.691Z,68.90
2019-01-27T06:13:27.883Z,68.74
2019-01-27T06:15:57.149Z,68.58
2019-01-27T06:18:26.326Z,68.55
2019-01-27T06:20:55.506Z,68.52
2019-01-27T06:23:24.742Z,68.52
2019-01-27T06:25:53.925Z,68.29
2019-01-27T06:28:23.151Z,68.18
2019-01-27T06:30:52.344Z,68.21
2019-01-27T06:33:26.445Z,68.36
2019-01-27T06:35:55.682Z,68.42
2019-01-27T06:38:24.918Z,68.43
2019-01-27T06:40:54.104Z,68.42
2019-01-27T06:43:23.346Z,68.48
2019-01-27T06:45:52.951Z,68.64
2019-01-27T06:48:22.139Z,68.62
2019-01-27T06:50:51.316Z,68.81
2019-01-27T06:53:20.584Z,68.85
2019-01-27T06:55:49.818Z,68.63
2019-01-27T06:58:19.037Z,69.28
2019-01-27T07:01:07.151Z,69.08
2019-01-27T07:03:55.329Z,69.14
2019-01-27T07:06:43.492Z,69.37
2019-01-27T07:09:31.801Z,69.45
2019-01-27T07:12:20.233Z,68.65
2019-01-27T07:15:08.408Z,68.39
2019-01-27T07:17:56.564Z,68.19
2019-01-27T07:20:44.763Z,67.99
2019-01-27T07:23:33.160Z,67.69
2019-01-27T07:26:21.326Z,67.63
2019-01-27T07:29:09.448Z,67.52
2019-01-27T07:31:57.722Z,68.12
2019-01-27T07:34:45.841Z,68.10
2019-01-27T07:37:34.067Z,68.93
2019-01-27T07:40:22.343Z,68.00
2019-01-27T07:43:10.502Z,68.45
2019-01-27T07:45:58.680Z,68.11
2019-01-27T07:48:47.221Z,68.06
2019-01-27T07:51:35.427Z,67.88
2019-01-27T07:57:32.235Z,66.58
2019-01-27T08:00:20.353Z,66.56
2019-01-27T08:03:12.112Z,66.85
2019-01-27T08:05:46.497Z,66.82
2019-01-27T08:08:34.671Z,66.97
2019-01-27T08:11:22.876Z,66.88
2019-01-27T08:14:11.052Z,66.98
2019-01-27T08:16:59.365Z,67.31
2019-01-27T08:19:47.534Z,66.69
2019-01-27T08:22:35.672Z,66.67
2019-01-27T08:25:44.340Z,66.50
2019-01-27T08:28:33.842Z,66.04
2019-01-27T08:31:22.802Z,65.83
2019-01-27T08:34:10.913Z,65.52
2019-01-27T08:36:59.155Z,65.34
2019-01-27T08:39:47.597Z,65.18
2019-01-27T08:42:35.711Z,64.75
2019-01-27T08:45:44.694Z,64.73
2019-01-27T08:48:14.005Z,64.63
2019-01-27T08:50:43.240Z,64.25
2019-01-27T08:53:12.754Z,64.42
2019-01-27T08:55:42.722Z,64.63
2019-01-27T08:58:11.899Z,65.13
2019-01-27T09:03:42.499Z,64.23
2019-01-27T09:06:30.667Z,64.11
2019-01-27T09:09:19.461Z,63.51
2019-01-27T09:12:00.132Z,63.74
2019-01-27T09:14:48.242Z,63.57
2019-01-27T09:17:36.407Z,63.78
2019-01-27T09:20:26.483Z,63.93
2019-01-27T09:23:14.705Z,63.46
2019-01-27T09:25:59.523Z,63.53
2019-01-27T09:28:33.487Z,63.76
2019-01-27T09:31:21.600Z,63.68
2019-01-27T09:34:13.296Z,63.57
2019-01-27T09:36:59.790Z,63.42
2019-01-27T09:39:47.966Z,63.58
2019-01-27T09:42:36.075Z,63.23
2019-01-27T09:45:57.620Z,63.09
2019-01-27T09:48:34.580Z,63.20
2019-01-27T09:51:22.757Z,63.50
2019-01-27T09:54:11.205Z,63.62
2019-01-27T09:56:59.321Z,63.24
2019-01-27T09:59:47.485Z,63.29
2019-01-27T10:02:35.734Z,63.31
2019-01-27T10:05:44.534Z,63.08
2019-01-27T10:08:32.649Z,63.16
2019-01-27T10:11:10.833Z,62.59
2019-01-27T10:13:58.943Z,62.43
2019-01-27T10:16:47.108Z,62.30
2019-01-27T10:19:23.719Z,61.80
2019-01-27T10:22:11.886Z,61.74
2019-01-27T10:25:00.005Z,61.63
2019-01-27T10:27:35.820Z,61.63
2019-01-27T10:30:45.832Z,61.92
2019-01-27T10:33:34.122Z,61.25
2019-01-27T10:36:14.243Z,60.80
2019-01-27T10:39:21.423Z,60.62
2019-01-27T10:42:06.107Z,59.96
2019-01-27T10:44:54.278Z,59.61
2019-01-27T10:47:42.391Z,59.61
2019-01-27T10:50:32.785Z,59.40
2019-01-27T10:53:21.114Z,59.23
2019-01-27T10:55:56.526Z,58.97
2019-01-27T10:58:44.638Z,59.10
2019-01-27T11:01:32.810Z,59.14
2019-01-27T11:04:20.998Z,58.88
2019-01-27T11:07:09.402Z,58.30
2019-01-27T11:09:54.546Z,57.83
2019-01-27T11:12:40.971Z,57.45
2019-01-27T11:15:33.446Z,57.03
2019-01-27T11:18:23.216Z,57.47
2019-01-27T11:21:11.377Z,56.69
2019-01-27T11:23:59.487Z,56.04
2019-01-27T11:26:45.540Z,55.89
2019-01-27T11:29:33.659Z,55.78
2019-01-27T11:32:22.160Z,55.79
2019-01-27T11:35:10.279Z,55.77
2019-01-27T11:37:58.497Z,55.93
2019-01-27T11:40:46.747Z,55.70
2019-01-27T11:43:34.922Z,55.19
2019-01-27T11:46:23.402Z,54.96
2019-01-27T11:49:30.578Z,55.61
2019-01-27T11:52:03.779Z,55.98
2019-01-27T11:54:33.014Z,55.82
2019-01-27T11:57:02.197Z,56.35
2019-01-27T11:59:31.554Z,56.33
2019-01-27T12:02:19.801Z,55.68
2019-01-27T12:04:49.041Z,55.56
2019-01-27T12:07:18.219Z,56.02
2019-01-27T12:09:47.544Z,55.96
2019-01-27T12:12:17.106Z,55.43
2019-01-27T12:14:46.632Z,55.61
2019-01-27T12:17:17.193Z,55.63
2019-01-27T12:19:46.438Z,55.39
2019-01-27T12:22:15.655Z,55.62
2019-01-27T12:24:44.852Z,55.24
2019-01-27T12:27:14.443Z,55.13
2019-01-27T12:29:43.624Z,55.27
2019-01-27T12:32:12.943Z,55.00
2019-01-27T12:34:42.139Z,55.14
2019-01-27T12:37:11.742Z,55.12
2019-01-27T12:39:40.928Z,55.76
2019-01-27T12:42:10.299Z,55.29
2019-01-27T12:47:27.758Z,56.15
2019-01-27T12:49:56.944Z,56.27
2019-01-27T12:52:26.167Z,56.37
2019-01-27T12:54:55.952Z,56.29
2019-01-27T12:57:25.232Z,56.09
2019-01-27T12:59:54.413Z,56.19
2019-01-27T13:02:23.993Z,55.75
2019-01-27T13:04:53.185Z,55.45
2019-01-27T13:07:22.362Z,55.73
2019-01-27T13:09:51.610Z,55.89
2019-01-27T13:12:21.095Z,56.05
2019-01-27T13:14:50.338Z,55.62
2019-01-27T13:17:19.528Z,55.69
2019-01-27T13:19:53.735Z,55.70
2019-01-27T13:22:19.684Z,55.82
2019-01-27T13:27:23.423Z,55.86
2019-01-27T13:29:52.661Z,55.43
2019-01-27T13:32:21.846Z,54.84
2019-01-27T13:37:25.339Z,54.70
2019-01-27T13:39:55.062Z,54.40
2019-01-27T13:42:24.250Z,54.83
2019-01-27T13:44:53.482Z,54.88
2019-01-27T13:47:22.670Z,54.76
2019-01-27T13:49:51.921Z,54.62
2019-01-27T13:52:21.102Z,54.42
2019-01-27T13:54:50.282Z,53.95
2019-01-27T13:57:19.531Z,54.21
2019-01-27T13:59:48.716Z,54.57
2019-01-27T14:02:17.956Z,55.07
2019-01-27T14:04:48.570Z,55.20
2019-01-27T14:07:18.189Z,55.53
2019-01-27T14:09:47.489Z,55.85
2019-01-27T14:12:16.751Z,55.99
2019-01-27T14:14:45.914Z,55.81
2019-01-27T14:17:15.427Z,55.77
2019-01-27T14:19:44.732Z,55.90
2019-01-27T14:22:13.961Z,55.86
2019-01-27T14:24:43.141Z,56.25
2019-01-27T14:27:12.714Z,56.67
2019-01-27T14:29:41.901Z,57.12
2019-01-27T14:32:11.134Z,57.80
2019-01-27T14:34:40.309Z,57.79
2019-01-27T14:37:09.571Z,58.22
2019-01-27T14:39:38.793Z,58.55
2019-01-27T14:42:07.963Z,59.06
2019-01-27T14:44:37.211Z,59.43
2019-01-27T14:47:06.410Z,59.82
2019-01-27T14:49:35.633Z,60.42
2019-01-27T14:52:04.911Z,61.19
2019-01-27T14:54:34.482Z,60.36
2019-01-27T14:57:03.674Z,60.42
2019-01-27T14:59:32.909Z,60.47
2019-01-27T15:02:02.079Z,60.24
2019-01-27T15:04:31.333Z,60.25
2019-01-27T15:07:00.514Z,60.30
2019-01-27T15:09:30.400Z,60.24
2019-01-27T15:11:59.580Z,60.13
2019-01-27T15:14:28.810Z,60.22
2019-01-27T15:16:58.378Z,60.17
2019-01-27T15:19:27.605Z,60.23
2019-01-27T15:21:56.783Z,59.86
2019-01-27T15:24:26.025Z,59.98
2019-01-27T15:26:55.197Z,59.72
2019-01-27T15:29:24.434Z,59.33
2019-01-27T15:31:53.612Z,59.68
2019-01-27T15:34:22.914Z,59.59
2019-01-27T15:36:52.121Z,59.41
2019-01-27T15:39:21.665Z,59.69
2019-01-27T15:41:50.898Z,59.84
2019-01-27T15:44:20.085Z,59.65
2019-01-27T15:46:49.315Z,59.59
2019-01-27T15:49:18.485Z,59.78
2019-01-27T15:51:48.369Z,60.02
2019-01-27T15:54:17.553Z,59.94
2019-01-27T15:56:46.786Z,59.05
2019-01-27T15:59:15.967Z,59.09
2019-01-27T16:01:45.206Z,59.15
2019-01-27T16:04:14.380Z,59.23
2019-01-27T16:06:43.562Z,59.04
2019-01-27T16:09:12.795Z,58.87
2019-01-27T16:11:41.976Z,58.95
2019-01-27T16:14:11.219Z,58.44
2019-01-27T16:16:40.755Z,58.44
2019-01-27T16:19:09.985Z,58.26
2019-01-27T16:21:39.163Z,57.86
2019-01-27T16:26:53.934Z,56.24
2019-01-27T16:32:34.007Z,56.05
2019-01-27T16:35:06.678Z,56.08
2019-01-27T16:37:35.859Z,56.17
2019-01-27T16:40:44.976Z,56.15
2019-01-27T16:43:14.153Z,56.32
2019-01-27T16:45:43.400Z,56.51
2019-01-27T16:48:31.650Z,56.63
2019-01-27T16:51:00.898Z,56.93
2019-01-27T16:53:30.078Z,57.03
2019-01-27T16:55:59.317Z,57.10
2019-01-27T16:58:28.488Z,57.43
2019-01-27T17:00:58.044Z,57.42
2019-01-27T17:03:27.218Z,57.81
2019-01-27T17:05:56.748Z,58.06
2019-01-27T17:08:26.290Z,58.26
2019-01-27T17:10:55.527Z,58.31
2019-01-27T17:13:24.714Z,58.68
2019-01-27T17:15:53.946Z,58.80
2019-01-27T17:18:23.126Z,59.02
2019-01-27T17:20:52.374Z,58.92
2019-01-27T17:23:21.571Z,58.91
2019-01-27T17:25:53.647Z,59.21
2019-01-27T17:28:22.194Z,58.82
2019-01-27T17:30:51.457Z,58.50
2019-01-27T17:33:20.737Z,58.42
2019-01-27T17:35:49.913Z,58.63
2019-01-27T17:38:19.491Z,58.49
2019-01-27T17:40:48.721Z,58.30
2019-01-27T17:43:17.964Z,58.32
2019-01-27T17:45:47.157Z,58.45
2019-01-27T17:48:16.402Z,58.40
2019-01-27T17:50:45.600Z,58.45
2019-01-27T17:53:14.915Z,58.55
2019-01-27T17:55:45.224Z,58.17
2019-01-27T17:58:36.397Z,58.06
2019-01-27T18:01:45.254Z,57.72
2019-01-27T18:04:33.427Z,57.79
2019-01-27T18:07:21.924Z,58.09
2019-01-27T18:10:10.483Z,57.85
2019-01-27T18:12:58.980Z,58.36
2019-01-27T18:18:07.874Z,58.52
2019-01-27T18:20:37.538Z,58.87
2019-01-27T18:23:06.734Z,59.20
2019-01-27T18:25:35.928Z,59.35
2019-01-27T18:28:05.288Z,59.62
2019-01-27T18:30:34.503Z,59.69
2019-01-27T18:33:03.765Z,59.79
2019-01-27T18:35:32.991Z,60.21
2019-01-27T18:38:02.286Z,60.29
2019-01-27T18:40:31.521Z,60.62
2019-01-27T18:43:00.775Z,60.74
2019-01-27T18:45:29.985Z,60.56
2019-01-27T18:47:59.284Z,60.89
2019-01-27T18:50:28.483Z,61.08
2019-01-27T18:53:16.649Z,61.16
2019-01-27T18:56:04.768Z,61.18
2019-01-27T18:58:52.945Z,61.11
2019-01-27T19:01:41.136Z,61.43
2019-01-27T19:04:29.702Z,61.11
2019-01-27T19:07:17.867Z,61.66
2019-01-27T19:10:06.151Z,61.83
2019-01-27T19:12:54.269Z,61.73
2019-01-27T19:15:42.443Z,61.65
2019-01-27T19:18:30.601Z,61.50
2019-01-27T19:21:18.779Z,61.50
2019-01-27T19:24:06.900Z,62.27
2019-01-27T19:26:45.490Z,61.85
2019-01-27T19:29:21.799Z,61.95
2019-01-27T19:32:09.977Z,62.08
2019-01-27T19:34:45.050Z,62.10
2019-01-27T19:37:33.226Z,61.89
2019-01-27T19:40:21.348Z,62.04
2019-01-27T19:43:09.568Z,61.95
2019-01-27T19:45:57.694Z,62.18
2019-01-27T19:48:42.645Z,62.70
2019-01-27T19:51:30.754Z,62.64
2019-01-27T19:54:07.987Z,62.46
2019-01-27T19:56:44.400Z,62.61
2019-01-27T19:59:32.576Z,62.78
2019-01-27T20:02:20.692Z,63.11
2019-01-27T20:05:08.881Z,63.16
2019-01-27T20:07:57.117Z,63.16
2019-01-27T20:10:45.301Z,63.21
2019-01-27T20:13:33.798Z,63.55
2019-01-27T20:16:21.996Z,63.96
2019-01-27T20:19:10.240Z,63.74
2019-01-27T20:21:58.556Z,63.96
2019-01-27T20:24:46.957Z,64.10
2019-01-27T20:27:35.163Z,64.23
2019-01-27T20:30:44.368Z,64.04
2019-01-27T20:33:32.891Z,64.22
2019-01-27T20:36:21.136Z,64.23
2019-01-27T20:41:53.804Z,64.61
2019-01-27T20:44:41.984Z,64.81
2019-01-27T20:47:30.422Z,65.45
2019-01-27T20:50:18.544Z,67.84
2019-01-27T20:53:07.025Z,70.39
2019-01-27T20:55:46.959Z,71.39
2019-01-27T20:58:35.241Z,72.05
2019-01-27T21:04:31.956Z,72.48
2019-01-27T21:07:20.085Z,72.17
2019-01-27T21:10:12.376Z,71.98
2019-01-27T21:12:58.455Z,71.63
2019-01-27T21:15:47.880Z,70.90
2019-01-27T21:18:36.846Z,71.11
2019-01-27T21:21:06.190Z,70.59
2019-01-27T21:23:35.753Z,70.54
2019-01-27T21:26:05.096Z,70.43
2019-01-27T21:28:34.790Z,70.50
2019-01-27T21:31:04.374Z,70.73
2019-01-27T21:33:34.020Z,70.90
2019-01-27T21:36:03.309Z,71.06
2019-01-27T21:38:32.786Z,70.99
2019-01-27T21:41:02.147Z,71.16
2019-01-27T21:43:31.689Z,70.46
2019-01-27T21:46:00.907Z,70.00
2019-01-27T21:48:30.152Z,69.99
2019-01-27T21:50:59.721Z,69.91
2019-01-27T21:53:28.960Z,70.10
2019-01-27T21:55:58.139Z,69.83
2019-01-27T21:58:27.371Z,69.96
2019-01-27T22:00:56.615Z,69.39
2019-01-27T22:03:25.866Z,69.59
2019-01-27T22:06:34.442Z,69.76
2019-01-27T22:11:58.414Z,69.25
2019-01-27T22:14:28.009Z,68.72
2019-01-27T22:16:57.192Z,69.07
2019-01-27T22:19:26.428Z,69.18
2019-01-27T22:27:59.476Z,69.05
2019-01-27T22:30:28.705Z,69.10
2019-01-27T22:32:58.292Z,68.71
2019-01-27T22:35:28.145Z,68.48
2019-01-27T22:37:57.595Z,68.33
2019-01-27T22:40:26.775Z,68.28
2019-01-27T22:42:56.071Z,68.61
2019-01-27T22:45:25.383Z,68.45
2019-01-27T22:47:54.608Z,68.18
2019-01-27T22:50:24.090Z,67.84
2019-01-27T22:52:53.669Z,67.83
2019-01-27T22:55:22.861Z,68.03
2019-01-27T22:57:52.130Z,68.18
2019-01-27T23:01:02.070Z,68.18
2019-01-27T23:03:53.126Z,67.95
2019-01-27T23:06:22.898Z,68.06
2019-01-27T23:08:52.077Z,68.25
2019-01-27T23:11:21.367Z,68.25
2019-01-27T23:13:50.771Z,68.01
2019-01-27T23:16:19.963Z,67.96
2019-01-27T23:18:49.196Z,68.08
2019-01-27T23:21:18.374Z,68.29
2019-01-27T23:23:47.728Z,68.35
2019-01-27T23:26:16.907Z,68.24
2019-01-27T23:28:46.140Z,68.54
2019-01-27T23:31:15.622Z,68.34
2019-01-27T23:33:44.867Z,68.35
2019-01-27T23:36:14.046Z,68.84
2019-01-27T23:38:43.353Z,68.74
2019-01-27T23:41:12.594Z,68.73
2019-01-27T23:43:41.828Z,68.84
2019-01-27T23:46:11.057Z,68.73
2019-01-27T23:48:40.231Z,69.21
2019-01-27T23:51:09.468Z,68.88
2019-01-27T23:53:38.651Z,68.00
2019-01-27T23:56:07.895Z,67.91
2019-01-27T23:58:37.071Z,67.28
